createdAt,value
2023-05-02T00:00:46.654Z,24.40
2023-05-02T00:01:46.773Z,26.00
2023-05-02T00:02:46.946Z,28.50
2023-05-02T00:03:46.160Z,26.70
2023-05-02T00:04:46.040Z,26.60
2023-05-02T00:05:46.058Z,28.60
2023-05-02T00:06:46.148Z,25.30
2023-05-02T00:07:46.014Z,26.80
2023-05-02T00:08:46.148Z,26.80
2023-05-02T00:09:46.242Z,26.50
2023-05-02T00:10:46.298Z,26.90
2023-05-02T00:11:46.341Z,27.60
2023-05-02T00:12:46.392Z,28.10
2023-05-02T00:13:46.461Z,27.10
2023-05-02T00:14:46.516Z,27.40
2023-05-02T00:15:46.573Z,25.70
2023-05-02T00:16:46.070Z,26.50
2023-05-02T00:17:46.757Z,27.90
2023-05-02T00:18:46.069Z,28.20
2023-05-02T00:19:45.933Z,26.00
2023-05-02T00:20:46.928Z,28.90
2023-05-02T00:21:46.872Z,29.00
2023-05-02T00:22:46.762Z,25.70
2023-05-02T00:23:46.914Z,28.30
2023-05-02T00:24:46.574Z,28.50
2023-05-02T00:25:46.665Z,30.60
2023-05-02T00:26:46.884Z,25.70
2023-05-02T00:27:46.986Z,27.50
2023-05-02T00:28:46.901Z,27.30
2023-05-02T00:29:46.848Z,28.20
2023-05-02T00:30:47.048Z,30.00
2023-05-02T00:31:46.910Z,28.60
2023-05-02T00:32:46.003Z,28.10
2023-05-02T00:33:45.839Z,26.60
2023-05-02T00:34:45.874Z,30.30
2023-05-02T00:35:45.827Z,29.30
2023-05-02T00:36:45.855Z,27.90
2023-05-02T00:37:45.821Z,29.20
2023-05-02T00:38:45.816Z,29.00
2023-05-02T00:39:45.802Z,30.00
2023-05-02T00:40:45.822Z,32.30
2023-05-02T00:41:45.837Z,30.80
2023-05-02T00:42:45.837Z,30.10
2023-05-02T00:43:45.863Z,27.80
2023-05-02T00:44:45.899Z,29.80
2023-05-02T00:45:45.895Z,29.10
2023-05-02T00:46:45.944Z,29.30
2023-05-02T00:47:45.974Z,30.30
2023-05-02T00:48:45.914Z,31.80
2023-05-02T00:49:46.086Z,30.00
2023-05-02T00:50:46.098Z,29.80
2023-05-02T00:51:46.100Z,31.10
2023-05-02T00:52:46.097Z,31.60
2023-05-02T00:53:46.105Z,32.10
2023-05-02T00:54:46.117Z,31.60
2023-05-02T00:55:46.117Z,31.90
2023-05-02T00:56:46.135Z,30.60
2023-05-02T00:57:46.127Z,29.30
2023-05-02T00:58:46.115Z,30.40
2023-05-02T00:59:46.153Z,29.90
2023-05-02T01:00:45.886Z,32.50
2023-05-02T01:01:46.192Z,33.30
2023-05-02T01:02:46.239Z,31.80
2023-05-02T01:03:45.711Z,33.00
2023-05-02T01:04:45.624Z,33.80
2023-05-02T01:05:45.657Z,35.60
2023-05-02T01:06:45.808Z,32.60
2023-05-02T01:07:45.601Z,31.40
2023-05-02T01:08:45.620Z,34.50
2023-05-02T01:09:45.930Z,29.60
2023-05-02T01:10:45.605Z,37.00
2023-05-02T01:11:45.612Z,34.70
2023-05-02T01:12:45.629Z,31.60
2023-05-02T01:13:45.626Z,33.20
2023-05-02T01:14:45.652Z,33.60
2023-05-02T01:15:45.662Z,38.50
2023-05-02T01:16:45.805Z,33.80
2023-05-02T01:17:45.682Z,36.40
2023-05-02T01:18:45.556Z,35.20
2023-05-02T01:19:45.551Z,35.30
2023-05-02T01:20:45.682Z,37.80
2023-05-02T01:21:45.679Z,38.10
2023-05-02T01:22:45.688Z,35.90
2023-05-02T01:23:45.692Z,39.60
2023-05-02T01:24:45.499Z,37.30
2023-05-02T01:25:45.712Z,38.60
2023-05-02T01:26:45.729Z,36.80
2023-05-02T01:27:45.722Z,40.00
2023-05-02T01:28:45.736Z,38.90
2023-05-02T01:29:45.732Z,39.80
2023-05-02T01:30:45.544Z,41.00
2023-05-02T01:31:45.471Z,42.20
2023-05-02T01:32:45.511Z,41.20
2023-05-02T01:33:45.557Z,38.70
2023-05-02T01:34:45.573Z,44.80
2023-05-02T01:35:45.443Z,42.40
2023-05-02T01:36:45.602Z,42.70
2023-05-02T01:37:45.424Z,41.80
2023-05-02T01:38:45.417Z,44.20
2023-05-02T01:39:45.412Z,42.50
2023-05-02T01:40:45.422Z,41.70
2023-05-02T01:41:45.428Z,43.70
2023-05-02T01:42:45.649Z,43.90
2023-05-02T01:43:45.654Z,45.50
2023-05-02T01:44:45.658Z,45.80
2023-05-02T01:45:45.695Z,45.40
2023-05-02T01:46:45.702Z,49.00
2023-05-02T01:47:45.773Z,46.50
2023-05-02T01:48:45.706Z,48.50
2023-05-02T01:49:45.903Z,48.00
2023-05-02T01:50:45.904Z,46.30
2023-05-02T01:51:45.916Z,48.50
2023-05-02T01:52:45.915Z,47.60
2023-05-02T01:53:45.362Z,52.40
2023-05-02T01:54:45.502Z,47.70
2023-05-02T01:55:45.919Z,49.60
2023-05-02T01:56:46.143Z,47.60
2023-05-02T01:57:46.145Z,49.30
2023-05-02T01:58:46.150Z,46.40
2023-05-02T01:59:46.152Z,49.10
2023-05-02T02:00:45.452Z,49.20
2023-05-02T02:01:45.376Z,49.90
2023-05-02T02:02:45.319Z,50.00
2023-05-02T02:03:45.344Z,52.90
2023-05-02T02:04:45.573Z,51.40
2023-05-02T02:05:45.403Z,54.80
2023-05-02T02:06:45.570Z,50.50
2023-05-02T02:07:45.390Z,50.30
2023-05-02T02:08:45.380Z,52.00
2023-05-02T02:09:45.411Z,51.30
2023-05-02T02:10:45.417Z,47.90
2023-05-02T02:11:45.418Z,55.00
2023-05-02T02:12:45.434Z,53.40
2023-05-02T02:13:45.429Z,53.50
2023-05-02T02:14:45.444Z,52.40
2023-05-02T02:15:45.246Z,50.80
2023-05-02T02:16:45.493Z,52.70
2023-05-02T02:17:45.146Z,56.30
2023-05-02T02:18:45.400Z,53.10
2023-05-02T02:19:45.471Z,59.80
2023-05-02T02:20:45.474Z,51.40
2023-05-02T02:21:45.487Z,53.40
2023-05-02T02:22:45.116Z,54.10
2023-05-02T02:23:45.497Z,49.50
2023-05-02T02:24:45.510Z,54.80
2023-05-02T02:25:45.513Z,51.50
2023-05-02T02:26:45.516Z,54.50
2023-05-02T02:27:45.542Z,54.30
2023-05-02T02:28:45.132Z,49.50
2023-05-02T02:29:45.069Z,53.90
2023-05-02T02:30:45.184Z,53.70
2023-05-02T02:31:45.049Z,53.00
2023-05-02T02:32:45.343Z,57.20
2023-05-02T02:33:45.370Z,54.30
2023-05-02T02:34:45.422Z,54.60
2023-05-02T02:35:45.183Z,55.30
2023-05-02T02:36:45.186Z,57.50
2023-05-02T02:37:45.193Z,61.50
2023-05-02T02:38:45.206Z,52.90
2023-05-02T02:39:45.202Z,57.00
2023-05-02T02:40:45.227Z,58.90
2023-05-02T02:41:45.427Z,63.30
2023-05-02T02:42:45.432Z,56.40
2023-05-02T02:43:45.443Z,63.00
2023-05-02T02:44:45.451Z,60.80
2023-05-02T02:45:45.473Z,67.40
2023-05-02T02:46:45.755Z,60.80
2023-05-02T02:47:45.113Z,58.90
2023-05-02T02:48:45.730Z,63.60
2023-05-02T02:49:45.332Z,68.30
2023-05-02T02:50:44.953Z,62.20
2023-05-02T02:51:44.898Z,64.70
2023-05-02T02:52:44.874Z,63.90
2023-05-02T02:53:45.820Z,64.60
2023-05-02T02:54:45.502Z,65.50
2023-05-02T02:55:45.887Z,65.50
2023-05-02T02:56:44.916Z,63.00
2023-05-02T02:57:44.935Z,65.00
2023-05-02T02:58:44.844Z,65.30
2023-05-02T02:59:44.899Z,67.50
2023-05-02T03:00:44.999Z,61.70
2023-05-02T03:01:44.981Z,65.90
2023-05-02T03:02:44.994Z,64.40
2023-05-02T03:03:45.020Z,61.60
2023-05-02T03:04:44.963Z,65.50
2023-05-02T03:05:44.989Z,67.00
2023-05-02T03:06:44.828Z,62.50
2023-05-02T03:07:44.991Z,64.70
2023-05-02T03:08:44.988Z,65.20
2023-05-02T03:09:45.085Z,62.40
2023-05-02T03:10:45.001Z,67.10
2023-05-02T03:11:44.804Z,65.60
2023-05-02T03:12:45.014Z,65.50
2023-05-02T03:13:45.024Z,67.90
2023-05-02T03:14:45.029Z,66.70
2023-05-02T03:15:45.068Z,67.40
2023-05-02T03:16:45.156Z,69.20
2023-05-02T03:17:44.912Z,67.10
2023-05-02T03:18:44.796Z,64.40
2023-05-02T03:19:45.071Z,66.70
2023-05-02T03:20:45.275Z,66.90
2023-05-02T03:21:45.288Z,64.40
2023-05-02T03:22:45.290Z,66.70
2023-05-02T03:23:44.690Z,66.40
2023-05-02T03:24:44.698Z,64.60
2023-05-02T03:25:44.714Z,68.00
2023-05-02T03:26:44.666Z,68.20
2023-05-02T03:27:44.737Z,66.50
2023-05-02T03:28:44.713Z,69.00
2023-05-02T03:29:44.725Z,67.90
2023-05-02T03:30:44.761Z,66.60
2023-05-02T03:31:44.784Z,70.40
2023-05-02T03:32:44.832Z,64.40
2023-05-02T03:33:44.965Z,69.70
2023-05-02T03:34:44.966Z,68.60
2023-05-02T03:35:44.973Z,66.20
2023-05-02T03:36:44.999Z,67.60
2023-05-02T03:37:45.507Z,70.30
2023-05-02T03:38:44.986Z,72.40
2023-05-02T03:39:45.204Z,62.50
2023-05-02T03:40:45.209Z,67.30
2023-05-02T03:41:44.806Z,69.70
2023-05-02T03:42:45.015Z,69.00
2023-05-02T03:43:45.250Z,68.20
2023-05-02T03:44:45.448Z,70.90
2023-05-02T03:45:47.574Z,65.80
2023-05-02T03:46:45.368Z,67.40
2023-05-02T03:47:44.864Z,66.50
2023-05-02T03:48:45.424Z,71.10
2023-05-02T03:49:44.654Z,67.30
2023-05-02T03:50:44.649Z,63.30
2023-05-02T03:51:45.283Z,68.10
2023-05-02T03:52:44.492Z,67.70
2023-05-02T03:53:44.521Z,69.40
2023-05-02T03:54:44.520Z,68.70
2023-05-02T03:55:44.510Z,63.70
2023-05-02T03:56:44.570Z,72.50
2023-05-02T03:57:44.622Z,70.40
2023-05-02T03:58:44.724Z,70.80
2023-05-02T03:59:44.515Z,66.40
2023-05-02T04:00:44.813Z,70.00
2023-05-02T04:01:44.586Z,68.20
2023-05-02T04:02:45.071Z,68.50
2023-05-02T04:03:45.099Z,69.30
2023-05-02T04:04:44.679Z,68.40
2023-05-02T04:05:44.959Z,67.80
2023-05-02T04:06:45.193Z,66.00
2023-05-02T04:07:44.569Z,70.70
2023-05-02T04:08:44.566Z,65.10
2023-05-02T04:09:44.576Z,66.60
2023-05-02T04:10:44.601Z,71.60
2023-05-02T04:11:45.254Z,66.00
2023-05-02T04:12:44.407Z,70.30
2023-05-02T04:13:44.399Z,70.60
2023-05-02T04:14:44.619Z,68.90
2023-05-02T04:15:44.861Z,71.40
2023-05-02T04:16:45.323Z,68.50
2023-05-02T04:17:44.886Z,69.10
2023-05-02T04:18:45.072Z,65.90
2023-05-02T04:19:45.246Z,67.20
2023-05-02T04:20:44.465Z,68.10
2023-05-02T04:21:44.290Z,64.70
2023-05-02T04:22:44.374Z,71.40
2023-05-02T04:23:44.307Z,70.70
2023-05-02T04:24:44.289Z,69.80
2023-05-02T04:25:44.372Z,73.20
2023-05-02T04:26:44.330Z,65.00
2023-05-02T04:27:44.316Z,67.80
2023-05-02T04:28:44.355Z,69.10
2023-05-02T04:29:44.681Z,69.90
2023-05-02T04:30:44.339Z,69.70
2023-05-02T04:31:44.619Z,68.00
2023-05-02T04:32:44.361Z,64.10
2023-05-02T04:33:44.759Z,66.70
2023-05-02T04:34:44.744Z,66.90
2023-05-02T04:35:44.549Z,69.80
2023-05-02T04:36:44.545Z,67.80
2023-05-02T04:37:44.316Z,62.70
2023-05-02T04:38:44.987Z,67.40
2023-05-02T04:39:44.771Z,64.30
2023-05-02T04:40:44.585Z,68.20
2023-05-02T04:41:44.788Z,69.00
2023-05-02T04:42:45.085Z,66.30
2023-05-02T04:43:44.998Z,61.60
2023-05-02T04:44:45.155Z,59.70
2023-05-02T04:45:44.432Z,63.80
2023-05-02T04:46:45.166Z,60.80
2023-05-02T04:47:45.242Z,58.10
2023-05-02T04:48:44.093Z,60.50
2023-05-02T04:49:44.262Z,58.50
2023-05-02T04:50:44.084Z,60.90
2023-05-02T04:51:44.087Z,60.30
2023-05-02T04:52:45.551Z,58.20
2023-05-02T04:53:44.167Z,60.80
2023-05-02T04:54:44.247Z,61.60
2023-05-02T04:55:44.078Z,58.20
2023-05-02T04:56:44.269Z,62.60
2023-05-02T04:57:44.276Z,62.70
2023-05-02T04:58:44.295Z,59.10
2023-05-02T04:59:44.291Z,60.20
2023-05-02T05:00:44.297Z,67.50
2023-05-02T05:01:44.318Z,65.80
2023-05-02T05:02:44.152Z,70.40
2023-05-02T05:03:44.338Z,69.90
2023-05-02T05:04:44.323Z,71.50
2023-05-02T05:05:44.371Z,75.30
2023-05-02T05:06:44.364Z,72.90
2023-05-02T05:07:43.992Z,75.60
2023-05-02T05:08:44.177Z,73.40
2023-05-02T05:09:43.956Z,76.60
2023-05-02T05:10:44.361Z,79.30
2023-05-02T05:11:44.369Z,81.50
2023-05-02T05:12:44.168Z,80.20
2023-05-02T05:13:44.386Z,81.90
2023-05-02T05:14:44.398Z,84.20
2023-05-02T05:15:44.547Z,82.60
2023-05-02T05:16:44.518Z,81.70
2023-05-02T05:17:44.478Z,91.30
2023-05-02T05:18:44.425Z,89.60
2023-05-02T05:19:43.881Z,81.70
2023-05-02T05:20:43.888Z,85.80
2023-05-02T05:21:43.861Z,93.50
2023-05-02T05:22:44.029Z,94.00
2023-05-02T05:23:43.930Z,87.30
2023-05-02T05:24:43.858Z,89.50
2023-05-02T05:25:45.776Z,91.80
2023-05-02T05:26:43.854Z,86.50
2023-05-02T05:27:43.874Z,85.70
2023-05-02T05:28:43.869Z,82.50
2023-05-02T05:29:43.885Z,83.10
2023-05-02T05:30:43.898Z,79.30
2023-05-02T05:31:43.970Z,81.40
2023-05-02T05:32:43.968Z,75.20
2023-05-02T05:33:43.932Z,84.40
2023-05-02T05:34:43.917Z,81.60
2023-05-02T05:35:43.922Z,78.90
2023-05-02T05:36:43.784Z,86.60
2023-05-02T05:37:43.890Z,80.00
2023-05-02T05:38:43.747Z,77.30
2023-05-02T05:39:43.943Z,77.80
2023-05-02T05:40:43.995Z,76.20
2023-05-02T05:41:44.011Z,73.30
2023-05-02T05:42:44.009Z,74.60
2023-05-02T05:43:43.862Z,69.20
2023-05-02T05:44:44.036Z,71.00
2023-05-02T05:45:44.029Z,69.60
2023-05-02T05:46:44.049Z,69.70
2023-05-02T05:47:44.219Z,63.60
2023-05-02T05:48:44.208Z,62.10
2023-05-02T05:49:44.222Z,65.60
2023-05-02T05:50:43.682Z,63.10
2023-05-02T05:51:43.708Z,64.00
2023-05-02T05:52:43.874Z,64.20
2023-05-02T05:53:43.856Z,59.20
2023-05-02T05:54:43.936Z,58.70
2023-05-02T05:55:44.001Z,62.20
2023-05-02T05:56:44.062Z,60.40
2023-05-02T05:57:44.127Z,52.90
2023-05-02T05:58:43.637Z,54.10
2023-05-02T05:59:43.929Z,55.90
2023-05-02T06:00:44.143Z,57.20
2023-05-02T06:01:44.301Z,56.40
2023-05-02T06:02:44.410Z,53.30
2023-05-02T06:03:43.910Z,57.00
2023-05-02T06:04:43.945Z,51.20
2023-05-02T06:05:44.124Z,52.20
2023-05-02T06:06:44.387Z,54.40
2023-05-02T06:07:43.864Z,53.40
2023-05-02T06:08:43.931Z,50.30
2023-05-02T06:09:43.553Z,51.70
2023-05-02T06:10:43.556Z,49.70
2023-05-02T06:11:44.222Z,48.60
2023-05-02T06:12:43.529Z,54.00
2023-05-02T06:13:43.653Z,55.30
2023-05-02T06:14:43.584Z,51.70
2023-05-02T06:15:44.387Z,47.80
2023-05-02T06:16:43.780Z,47.90
2023-05-02T06:17:43.550Z,48.20
2023-05-02T06:18:43.487Z,51.50
2023-05-02T06:19:43.492Z,48.40
2023-05-02T06:20:43.486Z,55.40
2023-05-02T06:21:43.545Z,50.90
2023-05-02T06:22:43.498Z,51.00
2023-05-02T06:23:43.464Z,47.10
2023-05-02T06:24:43.465Z,50.10
2023-05-02T06:25:43.458Z,54.20
2023-05-02T06:26:43.587Z,49.10
2023-05-02T06:27:43.555Z,49.40
2023-05-02T06:28:43.411Z,50.70
2023-05-02T06:29:43.580Z,52.20
2023-05-02T06:30:43.595Z,53.80
2023-05-02T06:31:43.641Z,50.00
2023-05-02T06:32:43.401Z,47.70
2023-05-02T06:33:43.632Z,49.60
2023-05-02T06:34:43.369Z,46.80
2023-05-02T06:35:43.381Z,47.00
2023-05-02T06:36:43.381Z,46.30
2023-05-02T06:37:43.430Z,49.50
2023-05-02T06:38:43.484Z,52.90
2023-05-02T06:39:43.654Z,43.60
2023-05-02T06:40:43.694Z,37.30
2023-05-02T06:41:43.409Z,31.40
2023-05-02T06:42:43.739Z,27.60
2023-05-02T06:43:43.723Z,32.20
2023-05-02T06:44:43.330Z,26.10
2023-05-02T06:45:43.670Z,24.20
2023-05-02T06:46:43.792Z,26.00
2023-05-02T06:47:43.390Z,19.80
2023-05-02T06:48:43.312Z,17.20
2023-05-02T06:49:43.324Z,14.30
2023-05-02T06:50:43.405Z,13.80
2023-05-02T06:51:43.456Z,13.30
2023-05-02T06:52:43.935Z,13.90
2023-05-02T06:53:43.671Z,13.40
2023-05-02T06:54:43.403Z,13.00
2023-05-02T06:55:43.663Z,13.30
2023-05-02T06:56:43.747Z,12.90
2023-05-02T06:57:43.321Z,12.60
2023-05-02T06:58:43.651Z,12.50
2023-05-02T06:59:43.981Z,12.80
2023-05-02T07:00:43.296Z,13.40
2023-05-02T07:01:43.224Z,13.80
2023-05-02T07:02:43.968Z,10.40
2023-05-02T07:03:43.210Z,13.00
2023-05-02T07:04:43.741Z,7.80
2023-05-02T07:05:43.806Z,10.60
2023-05-02T07:06:43.453Z,12.00
2023-05-02T07:07:43.168Z,10.50
2023-05-02T07:08:43.722Z,9.00
2023-05-02T07:09:44.035Z,10.80
2023-05-02T07:10:43.336Z,8.20
2023-05-02T07:11:43.650Z,8.70
2023-05-02T07:12:43.965Z,9.30
2023-05-02T07:13:43.181Z,9.60
2023-05-02T07:14:43.106Z,10.10
2023-05-02T07:15:43.420Z,10.10
2023-05-02T07:16:43.242Z,8.10
2023-05-02T07:17:43.696Z,8.30
2023-05-02T07:18:43.820Z,9.80
2023-05-02T07:19:45.373Z,8.60
2023-05-02T07:20:43.176Z,8.10
2023-05-02T07:21:43.228Z,9.70
2023-05-02T07:22:43.092Z,9.30
2023-05-02T07:23:43.285Z,10.80
2023-05-02T07:24:43.317Z,8.80
2023-05-02T07:25:43.386Z,10.20
2023-05-02T07:26:43.261Z,10.80
2023-05-02T07:27:43.482Z,8.40
2023-05-02T07:28:43.153Z,10.20
2023-05-02T07:29:43.181Z,9.40
2023-05-02T07:30:43.494Z,7.80
2023-05-02T07:31:43.707Z,11.10
2023-05-02T07:32:43.106Z,8.90
2023-05-02T07:33:42.984Z,8.20
2023-05-02T07:34:43.752Z,9.00
2023-05-02T07:35:43.017Z,9.90
2023-05-02T07:36:43.356Z,9.30
2023-05-02T07:37:43.087Z,10.20
2023-05-02T07:38:42.950Z,10.10
2023-05-02T07:39:43.355Z,9.00
2023-05-02T07:40:43.671Z,9.60
2023-05-02T07:41:43.782Z,10.40
2023-05-02T07:42:43.174Z,9.00
2023-05-02T07:43:43.504Z,9.00
2023-05-02T07:44:43.019Z,12.90
2023-05-02T07:45:42.960Z,10.70
2023-05-02T07:46:43.051Z,10.30
2023-05-02T07:47:42.964Z,10.10
2023-05-02T07:48:43.049Z,10.70
2023-05-02T07:49:43.043Z,9.60
2023-05-02T07:50:43.153Z,10.30
2023-05-02T07:51:42.930Z,11.70
2023-05-02T07:52:42.845Z,10.10
2023-05-02T07:53:43.254Z,12.90
2023-05-02T07:54:42.953Z,11.80
2023-05-02T07:55:43.171Z,10.80
2023-05-02T07:56:43.402Z,11.60
2023-05-02T07:57:43.425Z,11.40
2023-05-02T07:58:43.169Z,11.70
2023-05-02T07:59:43.427Z,12.90
2023-05-02T08:00:43.640Z,10.80
2023-05-02T08:01:42.904Z,9.40
2023-05-02T08:02:43.127Z,11.20
2023-05-02T08:03:42.918Z,11.60
2023-05-02T08:04:42.981Z,9.80
2023-05-02T08:05:43.258Z,11.20
2023-05-02T08:06:43.598Z,12.80
2023-05-02T08:07:42.805Z,11.60
2023-05-02T08:08:43.193Z,13.70
2023-05-02T08:09:43.497Z,10.90
2023-05-02T08:10:42.777Z,15.80
2023-05-02T08:11:43.085Z,14.10
2023-05-02T08:12:43.462Z,10.90
2023-05-02T08:13:42.703Z,11.40
2023-05-02T08:14:43.028Z,9.10
2023-05-02T08:15:43.366Z,10.10
2023-05-02T08:16:44.132Z,9.90
2023-05-02T08:17:42.798Z,8.00
2023-05-02T08:18:42.810Z,8.50
2023-05-02T08:19:42.655Z,7.10
2023-05-02T08:20:42.700Z,8.00
2023-05-02T08:21:42.743Z,7.40
2023-05-02T08:22:43.025Z,5.70
2023-05-02T08:23:42.800Z,6.80
2023-05-02T08:24:43.131Z,6.80
2023-05-02T08:25:42.911Z,6.00
2023-05-02T08:26:42.693Z,6.50
2023-05-02T08:27:43.156Z,6.80
2023-05-02T08:28:43.052Z,6.80
2023-05-02T08:29:42.619Z,8.00
2023-05-02T08:30:42.673Z,8.20
2023-05-02T08:31:43.245Z,7.60
2023-05-02T08:32:43.269Z,7.90
2023-05-02T08:33:42.748Z,9.60
2023-05-02T08:34:42.658Z,7.20
2023-05-02T08:35:43.040Z,8.70
2023-05-02T08:36:42.769Z,6.90
2023-05-02T08:37:42.622Z,8.70
2023-05-02T08:38:43.415Z,9.20
2023-05-02T08:39:42.690Z,9.60
2023-05-02T08:40:43.396Z,12.30
2023-05-02T08:41:43.326Z,10.60
2023-05-02T08:42:42.612Z,11.10
2023-05-02T08:43:42.929Z,9.70
2023-05-02T08:44:42.498Z,10.30
2023-05-02T08:45:42.520Z,9.30
2023-05-02T08:46:42.523Z,9.80
2023-05-02T08:47:43.945Z,8.70
2023-05-02T08:48:42.457Z,8.50
2023-05-02T08:49:42.712Z,9.70
2023-05-02T08:50:42.793Z,9.70
2023-05-02T08:51:42.831Z,10.10
2023-05-02T08:52:42.458Z,9.60
2023-05-02T08:53:42.936Z,11.20
2023-05-02T08:54:43.008Z,10.30
2023-05-02T08:55:42.975Z,13.50
2023-05-02T08:56:42.440Z,10.70
2023-05-02T08:57:42.457Z,12.30
2023-05-02T08:58:42.553Z,11.80
2023-05-02T08:59:42.851Z,11.90
2023-05-02T09:00:42.532Z,13.70
2023-05-02T09:01:42.469Z,12.50
2023-05-02T09:02:42.563Z,12.70
2023-05-02T09:03:43.116Z,13.20
2023-05-02T09:04:43.890Z,15.20
2023-05-02T09:05:42.371Z,14.20
2023-05-02T09:06:42.413Z,14.00
2023-05-02T09:07:42.370Z,16.70
2023-05-02T09:08:42.603Z,16.00
2023-05-02T09:09:42.389Z,16.10
2023-05-02T09:10:42.409Z,17.90
2023-05-02T09:11:42.423Z,17.70
2023-05-02T09:12:42.292Z,19.10
2023-05-02T09:13:42.642Z,21.80
2023-05-02T09:14:42.388Z,20.50
2023-05-02T09:15:42.454Z,19.50
2023-05-02T09:16:42.352Z,25.00
2023-05-02T09:17:43.866Z,21.00
2023-05-02T09:18:42.293Z,21.50
2023-05-02T09:19:42.254Z,20.80
2023-05-02T09:20:42.317Z,20.70
2023-05-02T09:21:42.329Z,20.60
2023-05-02T09:22:42.381Z,21.10
2023-05-02T09:23:42.230Z,21.50
2023-05-02T09:24:42.261Z,24.50
2023-05-02T09:25:42.429Z,21.80
2023-05-02T09:26:42.486Z,20.70
2023-05-02T09:27:42.192Z,25.60
2023-05-02T09:28:42.667Z,21.20
2023-05-02T09:29:42.723Z,24.10
2023-05-02T09:30:42.397Z,21.30
2023-05-02T09:32:42.738Z,22.40
2023-05-02T09:33:42.287Z,18.70
2023-05-02T09:34:42.275Z,21.40
2023-05-02T09:35:42.735Z,21.50
2023-05-02T09:36:42.207Z,19.80
2023-05-02T09:37:42.142Z,17.90
2023-05-02T09:38:42.775Z,20.60
2023-05-02T09:39:42.227Z,18.20
2023-05-02T09:40:42.451Z,19.30
2023-05-02T09:41:42.102Z,20.80
2023-05-02T09:42:42.165Z,18.70
2023-05-02T09:43:42.141Z,23.50
2023-05-02T09:44:42.137Z,25.70
2023-05-02T09:45:42.289Z,23.90
2023-05-02T09:46:42.356Z,24.40
2023-05-02T09:47:43.614Z,25.20
2023-05-02T09:48:42.188Z,27.90
2023-05-02T09:49:42.217Z,27.40
2023-05-02T09:50:42.215Z,23.00
2023-05-02T09:51:42.219Z,24.40
2023-05-02T09:52:42.067Z,24.30
2023-05-02T09:53:42.262Z,21.30
2023-05-02T09:54:42.269Z,22.40
2023-05-02T09:55:43.494Z,21.60
2023-05-02T09:56:42.034Z,23.60
2023-05-02T09:57:42.317Z,22.40
2023-05-02T09:58:41.999Z,23.60
2023-05-02T09:59:41.984Z,22.40
2023-05-02T10:00:42.021Z,19.60
2023-05-02T10:01:42.515Z,20.70
2023-05-02T10:02:41.971Z,18.10
2023-05-02T10:03:42.012Z,21.70
2023-05-02T10:04:42.116Z,22.00
2023-05-02T10:05:42.144Z,18.40
2023-05-02T10:06:42.461Z,20.70
2023-05-02T10:07:42.250Z,20.40
2023-05-02T10:08:42.046Z,17.50
2023-05-02T10:09:42.381Z,19.20
2023-05-02T10:10:41.931Z,22.30
2023-05-02T10:11:41.977Z,20.60
2023-05-02T10:12:42.036Z,22.60
2023-05-02T10:13:41.893Z,22.70
2023-05-02T10:14:41.913Z,21.90
2023-05-02T10:15:41.936Z,20.10
2023-05-02T10:16:41.871Z,23.40
2023-05-02T10:17:41.856Z,23.30
2023-05-02T10:18:41.882Z,22.60
2023-05-02T10:19:41.899Z,26.40
2023-05-02T10:20:41.893Z,34.50
2023-05-02T10:21:42.009Z,26.70
2023-05-02T10:22:41.949Z,28.80
2023-05-02T10:23:42.083Z,28.50
2023-05-02T10:24:41.969Z,19.90
2023-05-02T10:25:42.198Z,22.90
2023-05-02T10:26:42.206Z,23.20
2023-05-02T10:27:41.915Z,29.10
2023-05-02T10:28:42.208Z,25.00
2023-05-02T10:29:42.355Z,27.70
2023-05-02T10:30:41.783Z,29.50
2023-05-02T10:31:42.955Z,23.80
2023-05-02T10:32:41.826Z,22.50
2023-05-02T10:33:41.770Z,28.60
2023-05-02T10:34:43.210Z,24.10
2023-05-02T10:35:41.820Z,21.10
2023-05-02T10:36:41.835Z,18.40
2023-05-02T10:37:42.637Z,16.80
2023-05-02T10:38:41.876Z,18.30
2023-05-02T10:39:41.736Z,20.20
2023-05-02T10:40:41.785Z,21.30
2023-05-02T10:41:41.735Z,18.30
2023-05-02T10:42:41.704Z,17.50
2023-05-02T10:43:41.688Z,14.70
2023-05-02T10:44:41.951Z,14.90
2023-05-02T10:45:42.032Z,14.30
2023-05-02T10:46:41.835Z,16.50
2023-05-02T10:47:42.057Z,13.40
2023-05-02T10:48:41.993Z,16.80
2023-05-02T10:49:41.646Z,11.90
2023-05-02T10:50:41.966Z,15.40
2023-05-02T10:51:42.052Z,12.30
2023-05-02T10:52:41.887Z,13.80
2023-05-02T10:53:41.883Z,13.30
2023-05-02T10:54:42.063Z,16.80
2023-05-02T10:55:41.605Z,12.90
2023-05-02T10:56:41.806Z,10.70
2023-05-02T10:57:41.628Z,13.20
2023-05-02T10:58:41.591Z,12.10
2023-05-02T10:59:41.728Z,14.90
2023-05-02T11:00:42.091Z,13.90
2023-05-02T11:01:42.175Z,16.10
2023-05-02T11:02:41.756Z,14.40
2023-05-02T11:03:43.010Z,12.40
2023-05-02T11:04:42.202Z,12.70
2023-05-02T11:05:41.522Z,14.40
2023-05-02T11:06:41.929Z,13.50
2023-05-02T11:07:41.544Z,13.60
2023-05-02T11:08:41.500Z,13.50
2023-05-02T11:09:41.566Z,14.50
2023-05-02T11:10:41.492Z,14.40
2023-05-02T11:11:41.652Z,14.20
2023-05-02T11:12:41.489Z,15.50
2023-05-02T11:13:41.762Z,14.20
2023-05-02T11:14:41.822Z,15.80
2023-05-02T11:15:41.646Z,11.60
2023-05-02T11:16:41.509Z,12.40
2023-05-02T11:17:41.551Z,14.10
2023-05-02T11:18:41.471Z,10.60
2023-05-02T11:19:41.469Z,9.70
2023-05-02T11:20:41.467Z,14.80
2023-05-02T11:21:41.513Z,12.30
2023-05-02T11:22:42.454Z,12.10
2023-05-02T11:23:41.553Z,13.30
2023-05-02T11:24:41.443Z,13.60
2023-05-02T11:25:41.571Z,12.60
2023-05-02T11:26:41.604Z,12.30
2023-05-02T11:27:41.421Z,12.10
2023-05-02T11:28:42.834Z,11.10
2023-05-02T11:29:41.670Z,13.50
2023-05-02T11:30:41.498Z,12.90
2023-05-02T11:31:41.589Z,11.70
2023-05-02T11:32:41.748Z,12.40
2023-05-02T11:33:42.064Z,11.70
2023-05-02T11:34:41.454Z,16.30
2023-05-02T11:35:41.344Z,13.70
2023-05-02T11:36:42.136Z,11.80
2023-05-02T11:37:41.840Z,13.20
2023-05-02T11:38:41.290Z,14.00
2023-05-02T11:41:07.526Z,14.20
2023-05-02T11:42:07.441Z,12.10
2023-05-02T11:43:07.606Z,14.00
2023-05-02T11:44:07.563Z,13.30
2023-05-02T11:45:07.705Z,11.80
2023-05-02T11:46:07.386Z,17.00
2023-05-02T11:47:07.379Z,10.60
2023-05-02T11:48:07.637Z,9.70
2023-05-02T11:49:09.205Z,12.70
2023-05-02T11:50:07.823Z,11.60
2023-05-02T11:51:07.532Z,12.60
2023-05-02T11:52:07.962Z,15.90
2023-05-02T11:53:07.949Z,13.20
2023-05-02T11:54:07.743Z,10.50
2023-05-02T11:55:09.714Z,14.10
2023-05-02T11:56:08.129Z,13.40
2023-05-02T11:57:07.135Z,11.80
2023-05-02T11:58:07.169Z,13.90
2023-05-02T11:59:07.230Z,12.40
2023-05-02T12:00:07.259Z,13.90
2023-05-02T12:01:08.241Z,12.20
2023-05-02T12:02:07.447Z,9.30
2023-05-02T12:03:07.517Z,14.60
2023-05-02T12:04:07.748Z,13.00
2023-05-02T12:05:07.220Z,15.70
2023-05-02T12:06:07.658Z,12.70
2023-05-02T12:07:08.087Z,15.80
2023-05-02T12:08:07.206Z,14.40
2023-05-02T12:09:07.248Z,12.10
2023-05-02T12:10:07.359Z,11.40
2023-05-02T12:11:07.365Z,12.50
2023-05-02T12:12:07.452Z,12.50
2023-05-02T12:13:08.893Z,13.80
2023-05-02T12:14:07.530Z,13.50
2023-05-02T12:15:07.586Z,14.60
2023-05-02T12:16:07.635Z,17.20
2023-05-02T12:17:07.681Z,10.60
2023-05-02T12:18:07.788Z,11.40
2023-05-02T12:19:07.796Z,8.40
2023-05-02T12:20:07.895Z,11.20
2023-05-02T12:21:07.923Z,11.60
2023-05-02T12:22:07.860Z,8.60
2023-05-02T12:23:08.039Z,12.10
2023-05-02T12:24:07.405Z,9.00
2023-05-02T12:25:07.817Z,11.10
2023-05-02T12:26:07.310Z,10.60
2023-05-02T12:27:07.874Z,9.70
2023-05-02T12:28:07.791Z,10.60
2023-05-02T12:29:07.923Z,11.50
2023-05-02T12:30:07.852Z,11.10
2023-05-02T12:31:07.783Z,12.50
2023-05-02T12:32:07.903Z,11.60
2023-05-02T12:33:07.955Z,12.60
2023-05-02T12:34:07.725Z,11.50
2023-05-02T12:35:07.884Z,12.80
2023-05-02T12:36:07.785Z,10.60
2023-05-02T12:37:06.855Z,8.10
2023-05-02T12:38:06.885Z,10.60
2023-05-02T12:39:06.891Z,14.70
2023-05-02T12:40:06.984Z,16.20
2023-05-02T12:41:07.047Z,12.20
2023-05-02T12:42:07.080Z,14.40
2023-05-02T12:43:06.808Z,11.40
2023-05-02T12:44:07.234Z,11.50
2023-05-02T12:45:07.250Z,11.70
2023-05-02T12:46:07.301Z,7.90
2023-05-02T12:47:07.440Z,11.00
2023-05-02T12:48:07.461Z,11.90
2023-05-02T12:49:07.499Z,8.00
2023-05-02T12:50:07.541Z,10.40
2023-05-02T12:51:07.120Z,8.80
2023-05-02T12:52:06.893Z,10.00
2023-05-02T12:53:06.886Z,10.40
2023-05-02T12:54:06.788Z,12.00
2023-05-02T12:55:06.888Z,12.10
2023-05-02T12:56:06.895Z,9.20
2023-05-02T12:57:06.936Z,10.40
2023-05-02T12:58:07.121Z,9.40